Time;durP1;ratioP1;P1;durP2;ratioP2;P2;SDS_P1;SDS_P2;PMS_P1;PMS_P2;Temp;Humidity;BMP_temperature;BMP_pressure;BME280_temperature;BME280_humidity;BME280_pressure;Samples;Min_cycle;Max_cycle;Signal;HPM_P1;HPM_P2
2023/06/05 00:00:28;;;;;;;4.13;1.87;;;;;;;;;;4934165;29;20589;-78
2023/06/05 00:02:54;;;;;;;4.33;2.13;;;;;;;;;;4937082;29;20178;-78
2023/06/05 00:05:20;;;;;;;3.93;2.10;;;;;;;;;;4935720;29;20186;-77
2023/06/05 00:07:46;;;;;;;4.17;2.03;;;;;;;;;;4934660;29;20210;-77
2023/06/05 00:10:13;;;;;;;4.07;2.00;;;;;;;;;;4934812;29;20346;-78
2023/06/05 00:12:41;;;;;;;3.23;2.20;;;;;;;;;;4929421;29;20178;-78
2023/06/05 00:15:07;;;;;;;6.03;2.13;;;;;;;;;;4928426;29;20186;-78
2023/06/05 00:17:33;;;;;;;4.60;2.40;;;;;;;;;;4936071;29;20256;-78
2023/06/05 00:20:00;;;;;;;3.33;2.00;;;;;;;;;;4916896;29;20193;-78
2023/06/05 00:22:36;;;;;;;4.70;2.03;;;;;;;;;;4926265;29;20190;-78
2023/06/05 00:25:02;;;;;;;4.60;2.10;;;;;;;;;;4928197;29;20182;-78
2023/06/05 00:27:29;;;;;;;3.43;1.97;;;;;;;;;;4934142;29;20206;-78
2023/06/05 00:29:55;;;;;;;2.30;2.00;;;;;;;;;;4924671;29;20243;-78
2023/06/05 00:32:21;;;;;;;2.40;1.90;;;;;;;;;;4935751;29;20749;-78
2023/06/05 00:34:49;;;;;;;1.90;1.70;;;;;;;;;;4933590;29;20185;-78
2023/06/05 00:37:16;;;;;;;3.40;1.97;;;;;;;;;;4930075;29;20547;-78
2023/06/05 00:39:42;;;;;;;3.80;1.83;;;;;;;;;;4914740;29;20191;-78
2023/06/05 00:42:08;;;;;;;2.00;1.80;;;;;;;;;;4916927;29;20189;-78
2023/06/05 00:44:35;;;;;;;1.80;1.70;;;;;;;;;;4922638;29;20213;-78
2023/06/05 00:47:02;;;;;;;2.40;1.80;;;;;;;;;;4925118;29;20193;-78
2023/06/05 00:49:28;;;;;;;4.17;2.10;;;;;;;;;;4928108;29;20211;-78
2023/06/05 00:51:55;;;;;;;6.17;2.00;;;;;;;;;;4916172;29;20206;-78
2023/06/05 00:54:22;;;;;;;5.23;1.97;;;;;;;;;;4930974;29;20599;-78
2023/06/05 00:56:52;;;;;;;1.80;1.70;;;;;;;;;;4930958;29;20550;-78
2023/06/05 00:59:19;;;;;;;2.13;1.80;;;;;;;;;;4918029;29;20202;-77
2023/06/05 01:01:45;;;;;;;2.23;1.70;;;;;;;;;;4935357;29;20217;-78
2023/06/05 01:04:11;;;;;;;1.93;1.67;;;;;;;;;;4934044;29;20185;-78
2023/06/05 01:06:41;;;;;;;3.57;1.93;;;;;;;;;;4935842;29;20186;-77
2023/06/05 01:09:10;;;;;;;2.30;1.90;;;;;;;;;;4930036;29;20218;-77
2023/06/05 01:11:44;;;;;;;2.20;1.80;;;;;;;;;;4899631;29;20178;-78
2023/06/05 01:14:22;;;;;;;3.03;1.80;;;;;;;;;;4938930;29;20631;-78
2023/06/05 01:16:56;;;;;;;2.73;1.70;;;;;;;;;;4934661;29;20193;-78
2023/06/05 01:19:28;;;;;;;4.03;1.87;;;;;;;;;;4918020;29;20205;-77
2023/06/05 01:21:56;;;;;;;2.50;1.80;;;;;;;;;;4934891;29;20206;-78
2023/06/05 01:24:22;;;;;;;3.50;1.80;;;;;;;;;;4934933;29;20207;-77
2023/06/05 01:27:00;;;;;;;3.67;1.80;;;;;;;;;;4934682;29;20186;-78
2023/06/05 01:29:35;;;;;;;3.67;1.90;;;;;;;;;;4934344;29;20206;-78
2023/06/05 01:32:06;;;;;;;2.07;1.80;;;;;;;;;;4934962;29;20194;-78
2023/06/05 01:34:33;;;;;;;2.40;1.60;;;;;;;;;;4934193;29;20644;-78
2023/06/05 01:36:59;;;;;;;2.17;1.70;;;;;;;;;;4935730;29;20177;-78
2023/06/05 01:39:26;;;;;;;1.70;1.60;;;;;;;;;;4934049;29;20269;-78
2023/06/05 01:41:54;;;;;;;1.83;1.57;;;;;;;;;;4934112;29;20186;-78
2023/06/05 01:44:20;;;;;;;2.20;1.77;;;;;;;;;;4925167;29;20693;-78
2023/06/05 01:46:46;;;;;;;3.77;1.77;;;;;;;;;;4916269;29;20185;-78
2023/06/05 01:49:13;;;;;;;2.30;1.63;;;;;;;;;;4912605;29;20226;-78
2023/06/05 01:51:39;;;;;;;2.00;1.77;;;;;;;;;;4933220;29;20674;-78
2023/06/05 01:54:06;;;;;;;2.20;1.63;;;;;;;;;;4934837;29;20190;-78
2023/06/05 01:56:35;;;;;;;1.80;1.60;;;;;;;;;;4935150;29;20269;-78
2023/06/05 01:59:06;;;;;;;1.60;1.50;;;;;;;;;;4933886;29;20300;-78
2023/06/05 02:01:34;;;;;;;2.20;1.90;;;;;;;;;;4918062;29;20195;-78
2023/06/05 02:04:04;;;;;;;1.80;1.60;;;;;;;;;;4925680;29;20217;-78
2023/06/05 02:06:41;;;;;;;2.27;1.83;;;;;;;;;;4926430;29;20626;-78
2023/06/05 02:09:12;;;;;;;2.77;1.93;;;;;;;;;;4922518;29;20236;-77
2023/06/05 02:11:38;;;;;;;1.80;1.70;;;;;;;;;;4921554;29;20179;-78
2023/06/05 02:14:06;;;;;;;2.50;1.87;;;;;;;;;;4933470;29;20185;-78
2023/06/05 02:16:33;;;;;;;2.53;1.90;;;;;;;;;;4918768;29;20674;-78
2023/06/05 02:19:03;;;;;;;2.53;1.90;;;;;;;;;;4916539;29;20206;-78
2023/06/05 02:21:32;;;;;;;2.07;1.87;;;;;;;;;;4933786;29;20182;-78
2023/06/05 02:23:58;;;;;;;2.63;1.90;;;;;;;;;;4934538;29;20193;-78
2023/06/05 02:26:25;;;;;;;2.00;1.80;;;;;;;;;;4933535;29;20631;-78
2023/06/05 02:28:53;;;;;;;4.67;1.77;;;;;;;;;;4913860;29;20769;-78
2023/06/05 02:31:24;;;;;;;2.63;2.00;;;;;;;;;;4922535;29;20181;-78
2023/06/05 02:33:55;;;;;;;4.00;2.10;;;;;;;;;;4926655;29;20182;-78
2023/06/05 02:36:23;;;;;;;3.80;2.00;;;;;;;;;;4933123;29;20178;-77
2023/06/05 02:38:50;;;;;;;3.50;2.03;;;;;;;;;;4932981;29;20207;-78
2023/06/05 02:41:17;;;;;;;4.27;1.93;;;;;;;;;;4932669;29;20230;-78
2023/06/05 02:43:44;;;;;;;2.10;1.90;;;;;;;;;;4936253;29;20272;-78
2023/06/05 02:46:10;;;;;;;3.30;2.00;;;;;;;;;;4929336;29;20655;-78
2023/06/05 02:48:37;;;;;;;3.80;2.13;;;;;;;;;;4914927;29;20289;-78
2023/06/05 02:51:04;;;;;;;3.00;2.23;;;;;;;;;;4913805;29;20635;-78
2023/06/05 02:53:30;;;;;;;2.10;1.90;;;;;;;;;;4918612;29;20189;-78
2023/06/05 02:55:59;;;;;;;2.43;2.00;;;;;;;;;;4917066;29;20208;-78
2023/06/05 02:58:28;;;;;;;3.80;2.20;;;;;;;;;;4930034;29;20199;-78
2023/06/05 03:01:01;;;;;;;3.60;1.93;;;;;;;;;;4913852;29;20559;-78
2023/06/05 03:03:32;;;;;;;2.33;2.00;;;;;;;;;;4918427;29;20186;-78
2023/06/05 03:06:04;;;;;;;3.13;2.13;;;;;;;;;;4932846;29;20178;-77
2023/06/05 03:08:33;;;;;;;2.53;2.00;;;;;;;;;;4932451;29;20297;-77
2023/06/05 03:11:03;;;;;;;2.83;2.00;;;;;;;;;;4933084;29;20555;-77
2023/06/05 03:13:30;;;;;;;3.30;2.20;;;;;;;;;;4928565;29;20185;-80
2023/06/05 03:15:57;;;;;;;3.37;2.07;;;;;;;;;;4915033;29;20226;-79
2023/06/05 03:18:25;;;;;;;2.47;2.00;;;;;;;;;;4915090;29;20210;-80
2023/06/05 03:20:57;;;;;;;2.37;1.80;;;;;;;;;;4914981;29;20613;-79
2023/06/05 03:23:27;;;;;;;2.13;1.93;;;;;;;;;;4918293;29;20197;-79
2023/06/05 03:25:55;;;;;;;2.53;2.07;;;;;;;;;;4918160;29;20208;-80
2023/06/05 03:28:22;;;;;;;2.13;1.93;;;;;;;;;;4933387;29;20213;-80
2023/06/05 03:30:49;;;;;;;3.67;2.30;;;;;;;;;;4934739;29;20216;-80
2023/06/05 03:33:18;;;;;;;2.83;2.10;;;;;;;;;;4931682;29;20265;-80
2023/06/05 03:35:46;;;;;;;4.27;2.00;;;;;;;;;;4942643;29;20193;-80
2023/06/05 03:38:12;;;;;;;3.27;1.97;;;;;;;;;;4950689;29;20207;-80
2023/06/05 03:40:39;;;;;;;6.10;1.80;;;;;;;;;;4950653;29;20212;-80
2023/06/05 03:43:07;;;;;;;3.57;1.90;;;;;;;;;;4952310;29;20201;-80
2023/06/05 03:45:36;;;;;;;3.20;2.30;;;;;;;;;;4938010;29;20205;-80
2023/06/05 03:48:03;;;;;;;2.93;2.10;;;;;;;;;;4938186;29;20708;-80
2023/06/05 03:50:38;;;;;;;3.50;2.13;;;;;;;;;;4937470;29;20178;-80
2023/06/05 03:53:04;;;;;;;2.77;2.07;;;;;;;;;;4937133;29;20204;-80
2023/06/05 03:55:40;;;;;;;5.87;2.30;;;;;;;;;;4930813;29;20186;-80
2023/06/05 03:58:15;;;;;;;2.50;2.00;;;;;;;;;;4921563;29;20973;-79
2023/06/05 04:00:44;;;;;;;2.50;1.80;;;;;;;;;;4925734;29;20208;-80
2023/06/05 04:03:11;;;;;;;2.90;1.93;;;;;;;;;;4925473;29;20190;-80
2023/06/05 04:05:38;;;;;;;6.33;2.10;;;;;;;;;;4929442;29;20193;-80
2023/06/05 04:08:05;;;;;;;2.33;2.00;;;;;;;;;;4939358;29;20217;-80
2023/06/05 04:10:31;;;;;;;3.80;2.27;;;;;;;;;;4939387;29;20213;-80
2023/06/05 04:12:57;;;;;;;4.33;2.10;;;;;;;;;;4943768;29;20190;-80
2023/06/05 04:15:24;;;;;;;3.40;2.20;;;;;;;;;;4938373;29;20257;-80
2023/06/05 04:17:50;;;;;;;3.30;2.10;;;;;;;;;;4937959;29;20214;-80
2023/06/05 04:20:17;;;;;;;3.70;2.13;;;;;;;;;;4933776;29;20195;-80
2023/06/05 04:22:45;;;;;;;2.80;2.00;;;;;;;;;;4918494;29;20233;-80
2023/06/05 04:25:15;;;;;;;3.50;2.10;;;;;;;;;;4913535;29;20223;-80
2023/06/05 04:27:44;;;;;;;3.27;2.20;;;;;;;;;;4936846;29;20666;-80
2023/06/05 04:30:11;;;;;;;3.27;2.17;;;;;;;;;;4938103;29;20206;-80
2023/06/05 04:32:38;;;;;;;2.40;2.20;;;;;;;;;;4938526;29;20186;-80
2023/06/05 04:35:06;;;;;;;3.57;2.13;;;;;;;;;;4932834;29;20264;-80
2023/06/05 04:37:32;;;;;;;4.27;2.20;;;;;;;;;;4938119;29;20190;-80
2023/06/05 04:39:59;;;;;;;4.37;2.20;;;;;;;;;;4929802;29;20182;-78
2023/06/05 04:42:29;;;;;;;2.40;2.07;;;;;;;;;;4910719;29;20237;-78
2023/06/05 04:45:00;;;;;;;5.83;2.30;;;;;;;;;;4933759;29;20190;-78
2023/06/05 04:47:28;;;;;;;3.13;2.30;;;;;;;;;;4935737;29;20198;-80
2023/06/05 04:49:54;;;;;;;2.63;2.03;;;;;;;;;;4938034;29;20281;-80
2023/06/05 04:52:23;;;;;;;4.77;2.20;;;;;;;;;;4921848;29;20189;-79
2023/06/05 04:54:50;;;;;;;3.63;1.97;;;;;;;;;;4926605;29;20186;-80
2023/06/05 04:57:18;;;;;;;2.80;2.10;;;;;;;;;;4936402;29;20178;-80
2023/06/05 04:59:45;;;;;;;3.30;1.90;;;;;;;;;;4920937;29;20193;-80
2023/06/05 05:02:13;;;;;;;3.33;2.30;;;;;;;;;;4926221;29;20222;-79
2023/06/05 05:04:41;;;;;;;3.73;2.50;;;;;;;;;;4931128;29;20190;-80
2023/06/05 05:07:13;;;;;;;4.53;2.13;;;;;;;;;;4937854;29;20280;-80
2023/06/05 05:09:39;;;;;;;3.07;2.20;;;;;;;;;;4901078;29;20230;-78
2023/06/05 05:12:07;;;;;;;2.37;1.90;;;;;;;;;;4931706;29;20190;-77
2023/06/05 05:14:33;;;;;;;3.17;2.10;;;;;;;;;;4934745;29;20228;-76
2023/06/05 05:17:01;;;;;;;4.83;2.10;;;;;;;;;;4930769;29;20193;-77
2023/06/05 05:19:28;;;;;;;3.10;2.10;;;;;;;;;;4936233;29;20208;-79
2023/06/05 05:21:56;;;;;;;2.90;2.20;;;;;;;;;;4934783;29;20189;-79
2023/06/05 05:24:24;;;;;;;4.67;2.30;;;;;;;;;;4933523;29;20181;-77
2023/06/05 05:26:51;;;;;;;3.93;2.30;;;;;;;;;;4917816;29;20273;-79
2023/06/05 05:29:17;;;;;;;3.67;2.27;;;;;;;;;;4927988;29;20228;-77
2023/06/05 05:31:44;;;;;;;2.60;2.07;;;;;;;;;;4934306;29;20267;-77
2023/06/05 05:34:11;;;;;;;4.53;2.17;;;;;;;;;;4916293;29;20191;-77
2023/06/05 05:36:37;;;;;;;3.53;2.00;;;;;;;;;;4931244;29;20179;-77
2023/06/05 05:39:04;;;;;;;3.37;2.10;;;;;;;;;;4915107;29;20209;-78
2023/06/05 05:41:30;;;;;;;3.67;2.07;;;;;;;;;;4931803;29;20665;-78
2023/06/05 05:43:56;;;;;;;4.00;2.30;;;;;;;;;;4933903;29;20200;-78
2023/06/05 05:46:23;;;;;;;3.30;2.00;;;;;;;;;;4933544;29;20189;-78
2023/06/05 05:48:49;;;;;;;4.10;2.10;;;;;;;;;;4932790;29;20209;-77
2023/06/05 05:51:15;;;;;;;5.30;2.10;;;;;;;;;;4934842;29;20186;-78
2023/06/05 05:53:41;;;;;;;4.73;2.00;;;;;;;;;;4926917;29;20198;-78
2023/06/05 05:56:08;;;;;;;4.00;2.20;;;;;;;;;;4934782;29;20725;-79
2023/06/05 05:58:34;;;;;;;3.20;2.10;;;;;;;;;;4935126;29;20198;-83
2023/06/05 06:01:00;;;;;;;3.73;2.20;;;;;;;;;;4933789;29;20198;-77
2023/06/05 06:03:26;;;;;;;3.03;1.97;;;;;;;;;;4934304;29;20323;-77
2023/06/05 06:05:53;;;;;;;3.97;2.30;;;;;;;;;;4934694;29;20556;-77
2023/06/05 06:08:20;;;;;;;7.27;2.50;;;;;;;;;;4935035;29;20292;-77
2023/06/05 06:10:46;;;;;;;2.53;2.20;;;;;;;;;;4935180;29;20204;-77
2023/06/05 06:13:13;;;;;;;3.47;2.17;;;;;;;;;;4934983;29;20197;-77
2023/06/05 06:15:39;;;;;;;5.93;2.03;;;;;;;;;;4934446;29;20221;-77
2023/06/05 06:18:06;;;;;;;2.57;2.00;;;;;;;;;;4934444;29;20198;-77
2023/06/05 06:20:33;;;;;;;4.00;2.27;;;;;;;;;;4933731;29;20553;-77
2023/06/05 06:22:59;;;;;;;4.67;2.43;;;;;;;;;;4924957;29;20175;-78
2023/06/05 06:25:28;;;;;;;6.47;2.10;;;;;;;;;;4932244;29;20178;-76
2023/06/05 06:27:55;;;;;;;5.80;2.17;;;;;;;;;;4934387;29;20261;-77
2023/06/05 06:30:21;;;;;;;5.23;2.00;;;;;;;;;;4948745;28;20182;-77
2023/06/05 06:32:48;;;;;;;5.03;2.10;;;;;;;;;;4934621;29;20198;-77
2023/06/05 06:35:14;;;;;;;2.70;2.10;;;;;;;;;;4920635;29;20190;-77
2023/06/05 06:37:41;;;;;;;2.53;2.00;;;;;;;;;;4915555;29;20241;-77
2023/06/05 06:40:10;;;;;;;5.87;2.00;;;;;;;;;;4926047;29;20217;-78
2023/06/05 06:42:37;;;;;;;4.83;2.17;;;;;;;;;;4934310;29;20366;-77
2023/06/05 06:45:14;;;;;;;3.97;2.30;;;;;;;;;;4932913;29;20201;-75
2023/06/05 06:47:41;;;;;;;4.20;2.10;;;;;;;;;;4934278;29;20657;-75
2023/06/05 06:50:08;;;;;;;2.83;1.87;;;;;;;;;;4933786;29;20676;-74
2023/06/05 06:52:35;;;;;;;2.83;2.07;;;;;;;;;;4949440;29;20194;-75
2023/06/05 06:55:01;;;;;;;2.83;2.07;;;;;;;;;;4934215;29;20173;-74
2023/06/05 06:57:27;;;;;;;6.43;2.60;;;;;;;;;;4934232;29;20563;-77
2023/06/05 06:59:53;;;;;;;3.50;2.30;;;;;;;;;;4933603;29;20605;-78
2023/06/05 07:02:20;;;;;;;3.67;2.00;;;;;;;;;;4933061;29;20189;-78
2023/06/05 07:04:48;;;;;;;3.37;2.20;;;;;;;;;;4933662;29;20268;-77
2023/06/05 07:07:15;;;;;;;4.53;2.20;;;;;;;;;;4933230;29;20192;-76
2023/06/05 07:09:42;;;;;;;2.73;2.00;;;;;;;;;;4932714;29;20202;-75
2023/06/05 07:12:09;;;;;;;2.87;2.10;;;;;;;;;;4932189;29;20192;-75
2023/06/05 07:14:35;;;;;;;3.03;2.20;;;;;;;;;;4923043;29;20635;-75
2023/06/05 07:17:02;;;;;;;3.30;2.10;;;;;;;;;;4915197;29;20183;-75
2023/06/05 07:19:29;;;;;;;2.90;2.10;;;;;;;;;;4925154;29;20213;-74
2023/06/05 07:21:56;;;;;;;2.73;2.03;;;;;;;;;;4933836;29;20654;-75
2023/06/05 07:24:24;;;;;;;3.23;2.30;;;;;;;;;;4933630;29;20182;-76
2023/06/05 07:26:55;;;;;;;3.70;2.30;;;;;;;;;;4933694;29;20930;-79
2023/06/05 07:29:22;;;;;;;4.63;2.13;;;;;;;;;;4932848;29;20209;-75
2023/06/05 07:31:48;;;;;;;2.83;2.20;;;;;;;;;;4933014;29;20186;-77
2023/06/05 07:34:15;;;;;;;2.93;2.17;;;;;;;;;;4934112;29;20178;-75
2023/06/05 07:36:41;;;;;;;2.17;1.97;;;;;;;;;;4933774;29;20538;-77
2023/06/05 07:39:08;;;;;;;3.87;2.10;;;;;;;;;;4931521;29;20224;-75
2023/06/05 07:41:34;;;;;;;3.10;2.13;;;;;;;;;;4931559;29;20922;-75
2023/06/05 07:44:01;;;;;;;5.00;1.90;;;;;;;;;;4933225;29;20190;-75
2023/06/05 07:46:27;;;;;;;6.37;2.00;;;;;;;;;;4933924;29;20552;-75
2023/06/05 07:48:53;;;;;;;3.83;1.70;;;;;;;;;;4932750;29;20233;-76
2023/06/05 07:51:20;;;;;;;5.40;2.10;;;;;;;;;;4933657;29;20592;-76
2023/06/05 07:53:46;;;;;;;2.53;2.10;;;;;;;;;;4932923;29;20611;-81
2023/06/05 07:56:13;;;;;;;7.13;2.23;;;;;;;;;;4933721;29;20666;-75
2023/06/05 07:58:41;;;;;;;4.33;2.20;;;;;;;;;;4932623;29;20288;-75
2023/06/05 08:01:07;;;;;;;4.03;2.07;;;;;;;;;;4934416;29;20272;-75
2023/06/05 08:03:34;;;;;;;5.07;2.20;;;;;;;;;;4930346;29;20282;-77
2023/06/05 08:06:01;;;;;;;2.20;2.00;;;;;;;;;;4914517;29;20555;-77
2023/06/05 08:08:27;;;;;;;3.47;2.00;;;;;;;;;;4923404;29;20712;-75
2023/06/05 08:10:53;;;;;;;5.10;2.43;;;;;;;;;;4925846;29;20309;-75
2023/06/05 08:13:20;;;;;;;4.20;2.20;;;;;;;;;;4933530;29;20174;-75
2023/06/05 08:15:46;;;;;;;2.67;2.23;;;;;;;;;;4933615;29;20217;-75
2023/06/05 08:18:12;;;;;;;5.20;2.23;;;;;;;;;;4932405;29;20648;-75
2023/06/05 08:20:38;;;;;;;3.67;2.00;;;;;;;;;;4933251;29;20878;-75
2023/06/05 08:23:05;;;;;;;3.37;2.23;;;;;;;;;;4935038;29;20205;-75
2023/06/05 08:25:31;;;;;;;4.37;2.40;;;;;;;;;;4936813;29;20638;-75
2023/06/05 08:27:57;;;;;;;3.03;2.10;;;;;;;;;;4936670;29;20213;-76
2023/06/05 08:30:23;;;;;;;4.20;2.40;;;;;;;;;;4937216;29;20166;-76
2023/06/05 08:32:49;;;;;;;2.50;2.17;;;;;;;;;;4937216;29;20201;-75
2023/06/05 08:35:16;;;;;;;3.17;2.20;;;;;;;;;;4934904;29;20712;-75
2023/06/05 08:37:42;;;;;;;4.27;2.20;;;;;;;;;;4934837;29;20202;-75
2023/06/05 08:40:10;;;;;;;6.10;2.40;;;;;;;;;;4928581;29;20191;-75
2023/06/05 08:42:37;;;;;;;3.23;2.00;;;;;;;;;;4937035;29;20170;-75
2023/06/05 08:45:09;;;;;;;3.57;2.50;;;;;;;;;;4938342;29;20209;-78
2023/06/05 08:47:37;;;;;;;2.47;2.20;;;;;;;;;;4948114;29;20189;-78
2023/06/05 08:50:05;;;;;;;3.50;2.37;;;;;;;;;;4948395;29;20280;-78
2023/06/05 08:52:37;;;;;;;2.77;2.17;;;;;;;;;;4948110;29;20257;-75
2023/06/05 08:55:04;;;;;;;4.30;2.50;;;;;;;;;;4936865;29;20708;-74
2023/06/05 08:57:32;;;;;;;3.87;2.50;;;;;;;;;;4937178;29;20210;-75
2023/06/05 09:00:00;;;;;;;3.37;2.47;;;;;;;;;;4930732;29;20203;-75
2023/06/05 09:02:26;;;;;;;2.60;2.40;;;;;;;;;;4929378;29;20189;-74
2023/06/05 09:04:52;;;;;;;3.13;2.63;;;;;;;;;;4931675;29;20210;-75
2023/06/05 09:07:19;;;;;;;3.53;2.67;;;;;;;;;;4936160;29;20175;-74
2023/06/05 09:09:45;;;;;;;4.80;2.77;;;;;;;;;;4929086;29;20269;-73
2023/06/05 09:12:13;;;;;;;4.77;2.87;;;;;;;;;;4917966;29;20185;-73
2023/06/05 09:14:39;;;;;;;3.90;2.53;;;;;;;;;;4933014;29;20185;-73
2023/06/05 09:17:06;;;;;;;4.03;2.80;;;;;;;;;;4934534;29;20237;-72
2023/06/05 09:19:36;;;;;;;4.27;3.10;;;;;;;;;;4935828;29;20198;-73
2023/06/05 09:22:02;;;;;;;3.93;2.60;;;;;;;;;;4936234;29;20197;-73
2023/06/05 09:24:30;;;;;;;5.63;2.77;;;;;;;;;;4921356;29;20226;-74
2023/06/05 09:26:58;;;;;;;5.47;3.00;;;;;;;;;;4934250;29;20277;-75
2023/06/05 09:29:27;;;;;;;3.67;2.70;;;;;;;;;;4933420;29;20594;-73
2023/06/05 09:31:54;;;;;;;4.43;2.60;;;;;;;;;;4935092;29;20201;-74
2023/06/05 09:34:21;;;;;;;5.43;2.83;;;;;;;;;;4934975;29;20592;-73
2023/06/05 09:36:47;;;;;;;4.50;2.90;;;;;;;;;;4935820;29;20189;-73
2023/06/05 09:39:15;;;;;;;4.07;3.00;;;;;;;;;;4934769;29;20212;-73
2023/06/05 09:41:44;;;;;;;3.07;2.73;;;;;;;;;;4935013;29;20674;-72
2023/06/05 09:44:11;;;;;;;5.57;3.07;;;;;;;;;;4935375;29;20233;-72
2023/06/05 09:46:51;;;;;;;3.63;3.00;;;;;;;;;;4934166;29;20186;-74
2023/06/05 09:49:18;;;;;;;3.47;2.80;;;;;;;;;;4935143;29;20221;-73
2023/06/05 09:51:44;;;;;;;3.90;3.17;;;;;;;;;;4934517;29;20242;-73
2023/06/05 09:54:11;;;;;;;6.53;3.37;;;;;;;;;;4935137;29;20725;-74
2023/06/05 09:56:41;;;;;;;3.33;2.63;;;;;;;;;;4930179;29;20182;-74
2023/06/05 09:59:09;;;;;;;3.33;3.00;;;;;;;;;;4933634;29;20270;-73
2023/06/05 10:01:41;;;;;;;4.17;3.07;;;;;;;;;;4934134;29;20193;-73
2023/06/05 10:04:10;;;;;;;3.70;2.60;;;;;;;;;;4933712;29;20196;-74
2023/06/05 10:06:36;;;;;;;5.30;3.20;;;;;;;;;;4934774;29;20277;-73
2023/06/05 10:09:03;;;;;;;3.20;2.80;;;;;;;;;;4921776;29;20272;-73
2023/06/05 10:11:29;;;;;;;4.70;2.93;;;;;;;;;;4939525;29;20218;-74
2023/06/05 10:13:59;;;;;;;3.20;2.90;;;;;;;;;;4931152;29;20181;-76
2023/06/05 10:16:28;;;;;;;5.03;2.90;;;;;;;;;;4928448;29;20187;-77
2023/06/05 10:18:56;;;;;;;4.10;2.73;;;;;;;;;;4923074;29;20392;-75
2023/06/05 10:21:23;;;;;;;3.00;2.70;;;;;;;;;;4931151;29;20194;-75
2023/06/05 10:23:50;;;;;;;2.70;2.50;;;;;;;;;;4932315;29;20523;-74
2023/06/05 10:26:35;;;;;;;6.20;2.73;;;;;;;;;;4929683;29;20560;-75
2023/06/05 10:29:10;;;;;;;4.33;2.80;;;;;;;;;;4932511;29;20273;-75
2023/06/05 10:31:44;;;;;;;3.70;3.07;;;;;;;;;;4934255;29;20197;-78
2023/06/05 10:34:39;;;;;;;2.90;2.60;;;;;;;;;;4933488;29;20713;-73
2023/06/05 10:37:21;;;;;;;2.73;2.43;;;;;;;;;;4921325;29;20219;-73
2023/06/05 10:39:49;;;;;;;3.07;2.43;;;;;;;;;;4929834;29;20700;-73
2023/06/05 10:42:29;;;;;;;2.87;2.50;;;;;;;;;;4932620;29;20654;-73
2023/06/05 10:44:55;;;;;;;3.70;2.67;;;;;;;;;;4919946;29;20621;-73
2023/06/05 10:47:33;;;;;;;2.73;2.53;;;;;;;;;;4934307;29;20182;-75
2023/06/05 10:50:22;;;;;;;2.77;2.53;;;;;;;;;;4932986;29;20214;-74
2023/06/05 10:52:49;;;;;;;3.10;2.80;;;;;;;;;;4933823;29;20578;-73
2023/06/05 10:55:16;;;;;;;3.57;2.60;;;;;;;;;;4934065;29;20181;-75
2023/06/05 10:58:01;;;;;;;3.47;2.60;;;;;;;;;;4930955;29;20296;-73
2023/06/05 11:00:28;;;;;;;5.57;2.67;;;;;;;;;;4931995;29;20208;-75
2023/06/05 11:02:54;;;;;;;3.87;2.50;;;;;;;;;;4930196;29;20194;-75
2023/06/05 11:05:21;;;;;;;3.23;2.53;;;;;;;;;;4933072;29;20182;-76
2023/06/05 11:07:47;;;;;;;2.93;2.57;;;;;;;;;;4933981;29;20213;-76
2023/06/05 11:10:20;;;;;;;3.43;3.10;;;;;;;;;;4933819;29;20206;-75
2023/06/05 11:12:46;;;;;;;4.43;2.90;;;;;;;;;;4927823;29;20177;-76
2023/06/05 11:15:13;;;;;;;3.83;2.40;;;;;;;;;;4933507;29;20201;-75
2023/06/05 11:17:44;;;;;;;2.77;2.47;;;;;;;;;;4932447;29;20220;-77
2023/06/05 11:20:26;;;;;;;2.90;2.70;;;;;;;;;;4927164;29;20627;-74
2023/06/05 11:22:52;;;;;;;3.20;2.60;;;;;;;;;;4931039;29;20194;-76
2023/06/05 11:25:24;;;;;;;3.53;2.40;;;;;;;;;;4933342;29;20195;-77
2023/06/05 11:27:50;;;;;;;4.73;2.87;;;;;;;;;;4932730;29;20670;-76
2023/06/05 11:30:17;;;;;;;3.07;2.77;;;;;;;;;;4933033;29;20213;-76
2023/06/05 11:32:44;;;;;;;4.67;2.90;;;;;;;;;;4920633;29;20237;-77
2023/06/05 11:35:10;;;;;;;3.47;2.90;;;;;;;;;;4933653;29;20731;-77
2023/06/05 11:37:37;;;;;;;4.30;2.63;;;;;;;;;;4933098;29;20190;-78
2023/06/05 11:40:10;;;;;;;3.33;2.53;;;;;;;;;;4933920;29;20242;-78
2023/06/05 11:42:38;;;;;;;2.97;2.67;;;;;;;;;;4933747;29;20186;-78
2023/06/05 11:45:11;;;;;;;4.20;2.40;;;;;;;;;;4915323;29;20214;-79
2023/06/05 11:47:38;;;;;;;3.10;2.80;;;;;;;;;;4930098;29;20548;-78
2023/06/05 11:50:08;;;;;;;3.40;2.57;;;;;;;;;;4933779;29;20209;-79
2023/06/05 11:52:34;;;;;;;3.03;2.73;;;;;;;;;;4930652;29;20718;-78
2023/06/05 11:55:15;;;;;;;4.20;2.70;;;;;;;;;;4934273;29;20188;-79
2023/06/05 11:57:41;;;;;;;2.90;2.63;;;;;;;;;;4935420;29;20193;-79
2023/06/05 12:00:09;;;;;;;2.53;2.33;;;;;;;;;;4930188;29;20238;-79
2023/06/05 12:02:36;;;;;;;2.83;2.63;;;;;;;;;;4933575;29;20191;-79
2023/06/05 12:05:02;;;;;;;6.53;2.60;;;;;;;;;;4937349;29;20184;-79
2023/06/05 12:07:31;;;;;;;5.80;2.70;;;;;;;;;;4938199;29;20257;-78
2023/06/05 12:10:00;;;;;;;3.23;2.63;;;;;;;;;;4931162;29;20352;-79
2023/06/05 12:12:26;;;;;;;3.10;2.60;;;;;;;;;;4934261;29;20318;-79
2023/06/05 12:14:55;;;;;;;4.53;2.70;;;;;;;;;;4935049;29;20268;-79
2023/06/05 12:17:22;;;;;;;4.83;2.70;;;;;;;;;;4929308;29;20203;-78
2023/06/05 12:19:55;;;;;;;3.20;2.60;;;;;;;;;;4933573;29;20638;-79
2023/06/05 12:22:22;;;;;;;2.50;2.30;;;;;;;;;;4927456;29;20195;-78
2023/06/05 12:24:48;;;;;;;2.93;2.60;;;;;;;;;;4937157;29;20683;-79
2023/06/05 12:27:15;;;;;;;3.27;2.63;;;;;;;;;;4934919;29;20185;-79
2023/06/05 12:29:53;;;;;;;2.80;2.60;;;;;;;;;;4933299;29;20218;-78
2023/06/05 12:32:20;;;;;;;2.93;2.40;;;;;;;;;;4928520;29;20175;-79
2023/06/05 12:34:50;;;;;;;3.70;2.70;;;;;;;;;;4933011;29;20218;-79
2023/06/05 12:37:29;;;;;;;2.50;2.30;;;;;;;;;;4926355;29;20242;-78
2023/06/05 12:39:59;;;;;;;3.13;2.70;;;;;;;;;;4917758;29;20190;-79
2023/06/05 12:42:25;;;;;;;2.73;2.53;;;;;;;;;;4925925;29;20194;-78
2023/06/05 12:44:52;;;;;;;2.53;2.17;;;;;;;;;;4922502;29;20217;-79
2023/06/05 12:47:18;;;;;;;4.77;2.57;;;;;;;;;;4939344;29;20200;-79
2023/06/05 12:49:44;;;;;;;3.83;2.23;;;;;;;;;;4939167;29;20239;-79
2023/06/05 12:52:10;;;;;;;2.40;2.20;;;;;;;;;;4936106;29;20191;-79
2023/06/05 12:54:37;;;;;;;2.33;2.10;;;;;;;;;;4923843;29;20193;-79
2023/06/05 12:57:06;;;;;;;2.47;2.27;;;;;;;;;;4930345;29;20221;-79
2023/06/05 12:59:33;;;;;;;5.10;2.20;;;;;;;;;;4935078;29;20209;-79
2023/06/05 13:01:59;;;;;;;4.63;2.30;;;;;;;;;;4936596;29;20554;-79
2023/06/05 13:04:25;;;;;;;3.60;2.60;;;;;;;;;;4919796;29;20198;-79
2023/06/05 13:06:53;;;;;;;5.37;2.20;;;;;;;;;;4935643;29;20190;-79
2023/06/05 13:09:20;;;;;;;3.03;2.13;;;;;;;;;;4916064;29;20211;-78
2023/06/05 13:11:46;;;;;;;3.10;2.10;;;;;;;;;;4935555;29;20198;-79
2023/06/05 13:14:12;;;;;;;4.03;2.17;;;;;;;;;;4934540;29;20722;-79
2023/06/05 13:16:39;;;;;;;2.37;2.10;;;;;;;;;;4936159;28;20187;-78
2023/06/05 13:19:05;;;;;;;3.23;2.13;;;;;;;;;;4931266;29;20211;-78
2023/06/05 13:21:32;;;;;;;3.13;2.20;;;;;;;;;;4936338;29;20199;-78
2023/06/05 13:23:58;;;;;;;2.30;2.20;;;;;;;;;;4933065;29;20209;-79
2023/06/05 13:26:24;;;;;;;3.57;2.40;;;;;;;;;;4934113;29;20239;-79
2023/06/05 13:28:51;;;;;;;2.87;2.20;;;;;;;;;;4935693;29;20303;-79
2023/06/05 13:31:17;;;;;;;2.77;2.00;;;;;;;;;;4938142;29;20193;-79
2023/06/05 13:33:43;;;;;;;2.93;2.40;;;;;;;;;;4930031;29;20187;-79
2023/06/05 13:36:09;;;;;;;3.20;2.00;;;;;;;;;;4934301;29;20266;-79
2023/06/05 13:38:38;;;;;;;2.40;2.20;;;;;;;;;;4935311;29;20206;-79
2023/06/05 13:41:05;;;;;;;4.37;2.00;;;;;;;;;;4935907;29;20221;-79
2023/06/05 13:43:32;;;;;;;3.40;2.10;;;;;;;;;;4931299;29;20182;-79
2023/06/05 13:45:58;;;;;;;3.00;2.00;;;;;;;;;;4929582;29;20234;-78
2023/06/05 13:48:25;;;;;;;3.17;1.90;;;;;;;;;;4930070;29;20215;-79
2023/06/05 13:50:51;;;;;;;2.30;2.10;;;;;;;;;;4935302;29;20186;-78
2023/06/05 13:53:17;;;;;;;1.90;1.80;;;;;;;;;;4934804;29;20211;-79
2023/06/05 13:55:43;;;;;;;3.43;2.27;;;;;;;;;;4930718;29;20195;-82
2023/06/05 13:58:11;;;;;;;2.40;2.20;;;;;;;;;;4918672;29;20197;-81
2023/06/05 14:00:37;;;;;;;2.53;2.20;;;;;;;;;;4915195;29;20194;-80
2023/06/05 14:03:05;;;;;;;2.40;2.05;;;;;;;;;;4922062;29;20613;-79
2023/06/05 14:05:31;;;;;;;2.33;1.95;;;;;;;;;;4935390;29;20191;-79
2023/06/05 14:07:57;;;;;;;4.53;2.22;;;;;;;;;;4928447;29;20271;-79
2023/06/05 14:10:24;;;;;;;3.70;2.05;;;;;;;;;;4934283;29;20223;-79
2023/06/05 14:12:51;;;;;;;3.88;2.00;;;;;;;;;;4935173;29;20187;-79
2023/06/05 14:15:17;;;;;;;2.08;1.90;;;;;;;;;;4935700;29;20193;-79
2023/06/05 14:17:44;;;;;;;4.17;1.90;;;;;;;;;;4934393;29;20205;-79
2023/06/05 14:20:11;;;;;;;3.40;1.80;;;;;;;;;;4928074;29;20670;-79
2023/06/05 14:22:37;;;;;;;2.30;2.10;;;;;;;;;;4935372;29;20236;-79
2023/06/05 14:25:05;;;;;;;3.87;1.80;;;;;;;;;;4936342;29;20557;-79
2023/06/05 14:27:32;;;;;;;4.03;2.05;;;;;;;;;;4936344;29;20207;-79
2023/06/05 14:29:58;;;;;;;2.28;1.98;;;;;;;;;;4950977;29;20217;-82
2023/06/05 14:32:24;;;;;;;2.20;2.00;;;;;;;;;;4936169;29;20181;-80
2023/06/05 14:34:50;;;;;;;3.53;1.80;;;;;;;;;;4936042;29;20199;-80
2023/06/05 14:37:16;;;;;;;4.10;2.17;;;;;;;;;;4937139;29;20189;-80
2023/06/05 14:39:43;;;;;;;3.67;2.20;;;;;;;;;;4938107;29;20201;-80
2023/06/05 14:42:09;;;;;;;2.60;2.40;;;;;;;;;;4935639;29;20187;-80
2023/06/05 14:44:35;;;;;;;2.45;1.90;;;;;;;;;;4937766;29;20186;-80
2023/06/05 14:47:01;;;;;;;2.22;2.10;;;;;;;;;;4938473;29;20183;-80